createdAt,value
2018-11-13T00:01:35.256Z,23.80
2018-11-13T00:04:03.448Z,22.57
2018-11-13T00:06:31.465Z,22.10
2018-11-13T00:08:59.720Z,22.63
2018-11-13T00:11:27.826Z,22.77
2018-11-13T00:13:55.879Z,23.10
2018-11-13T00:16:23.926Z,23.53
2018-11-13T00:18:51.993Z,22.53
2018-11-13T00:21:20.111Z,22.03
2018-11-13T00:23:48.334Z,22.80
2018-11-13T00:26:16.380Z,23.37
2018-11-13T00:28:44.473Z,22.57
2018-11-13T00:31:12.558Z,23.00
2018-11-13T00:33:40.804Z,23.73
2018-11-13T00:36:08.886Z,24.57
2018-11-13T00:38:36.954Z,23.03
2018-11-13T00:41:05.638Z,21.73
2018-11-13T00:43:34.288Z,21.97
2018-11-13T00:46:02.071Z,21.00
2018-11-13T00:48:30.073Z,21.03
2018-11-13T00:50:58.179Z,21.07
2018-11-13T00:53:26.301Z,21.77
2018-11-13T00:55:54.363Z,19.90
2018-11-13T00:58:22.477Z,19.97
2018-11-13T01:00:50.579Z,20.57
2018-11-13T01:03:19.452Z,21.60
2018-11-13T01:05:47.527Z,19.40
2018-11-13T01:08:15.540Z,18.57
2018-11-13T01:10:43.631Z,20.80
2018-11-13T01:13:11.691Z,19.43
2018-11-13T01:15:39.773Z,17.80
2018-11-13T01:18:07.806Z,19.33
2018-11-13T01:20:35.830Z,17.83
2018-11-13T01:23:04.348Z,18.50
2018-11-13T01:25:32.417Z,16.43
2018-11-13T01:28:00.546Z,16.70
2018-11-13T01:30:28.590Z,14.70
2018-11-13T01:32:56.667Z,16.03
2018-11-13T01:35:24.714Z,17.13
2018-11-13T01:37:52.785Z,17.87
2018-11-13T01:40:20.871Z,15.83
2018-11-13T01:42:48.957Z,17.20
2018-11-13T01:45:17.016Z,16.60
2018-11-13T01:47:45.131Z,16.73
2018-11-13T01:50:13.193Z,13.90
2018-11-13T01:52:41.351Z,15.50
2018-11-13T01:55:09.886Z,14.70
2018-11-13T01:57:37.919Z,13.90
2018-11-13T02:00:08.780Z,12.60
2018-11-13T02:02:36.803Z,11.73
2018-11-13T02:05:05.402Z,11.50
2018-11-13T02:07:33.466Z,11.07
2018-11-13T02:10:01.539Z,9.70
2018-11-13T02:12:29.580Z,9.97
2018-11-13T02:14:57.621Z,9.57
2018-11-13T02:17:25.670Z,8.83
2018-11-13T02:19:53.731Z,9.00
2018-11-13T02:22:21.787Z,9.37
2018-11-13T02:24:49.880Z,9.53
2018-11-13T02:27:17.927Z,9.20
2018-11-13T02:29:46.027Z,8.57
2018-11-13T02:32:14.043Z,8.63
2018-11-13T02:34:42.141Z,7.33
2018-11-13T02:37:10.242Z,7.43
2018-11-13T02:39:38.282Z,7.20
2018-11-13T02:42:06.399Z,7.03
2018-11-13T02:44:34.401Z,6.63
2018-11-13T02:47:02.490Z,6.13
2018-11-13T02:49:30.513Z,5.80
2018-11-13T02:51:58.545Z,5.50
2018-11-13T02:54:26.551Z,6.13
2018-11-13T02:56:54.582Z,5.00
2018-11-13T02:59:22.624Z,5.53
2018-11-13T03:01:50.642Z,5.57
2018-11-13T03:04:18.797Z,5.47
2018-11-13T03:06:46.887Z,5.57
2018-11-13T03:09:14.914Z,5.30
2018-11-13T03:11:42.957Z,5.40
2018-11-13T03:14:10.983Z,4.87
2018-11-13T03:16:39.041Z,4.83
2018-11-13T03:19:07.081Z,4.70
2018-11-13T03:21:35.166Z,4.53
2018-11-13T03:24:03.705Z,4.40
2018-11-13T03:26:31.744Z,4.30
2018-11-13T03:28:59.812Z,4.13
2018-11-13T03:31:27.891Z,4.63
2018-11-13T03:33:55.869Z,4.10
2018-11-13T03:36:24.003Z,4.23
2018-11-13T03:38:52.021Z,4.27
2018-11-13T03:41:20.091Z,3.63
2018-11-13T03:43:48.135Z,3.70
2018-11-13T03:46:16.149Z,3.50
2018-11-13T03:48:44.263Z,3.50
2018-11-13T03:51:12.301Z,3.00
2018-11-13T03:53:40.422Z,2.70
2018-11-13T03:56:08.447Z,2.90
2018-11-13T03:58:36.577Z,2.97
2018-11-13T04:01:05.135Z,2.47
2018-11-13T04:03:33.196Z,3.03
2018-11-13T04:06:01.300Z,3.07
2018-11-13T04:08:29.367Z,2.80
2018-11-13T04:10:57.439Z,3.27
2018-11-13T04:13:25.488Z,3.10
2018-11-13T04:15:53.546Z,2.90
2018-11-13T04:18:21.639Z,2.80
2018-11-13T04:20:49.816Z,3.10
2018-11-13T04:23:17.842Z,2.70
2018-11-13T04:25:45.901Z,2.63
2018-11-13T04:28:13.943Z,3.57
2018-11-13T04:30:42.211Z,3.20
2018-11-13T04:33:10.223Z,3.37
2018-11-13T04:35:38.302Z,3.60
2018-11-13T04:38:06.374Z,3.23
2018-11-13T04:40:34.447Z,3.30
2018-11-13T04:43:02.478Z,3.30
2018-11-13T04:45:30.806Z,3.40
2018-11-13T04:47:58.914Z,3.33
2018-11-13T04:50:26.997Z,3.50
2018-11-13T04:52:55.066Z,3.53
2018-11-13T04:55:23.125Z,3.30
2018-11-13T04:57:51.156Z,3.70
2018-11-13T05:00:19.231Z,3.40
2018-11-13T05:02:47.384Z,3.40
2018-11-13T05:05:15.504Z,3.67
2018-11-13T05:07:43.603Z,3.60
2018-11-13T05:10:11.707Z,3.57
2018-11-13T05:12:39.640Z,4.20
2018-11-13T05:15:07.713Z,3.63
2018-11-13T05:17:35.781Z,4.37
2018-11-13T05:20:04.255Z,4.10
2018-11-13T05:22:32.387Z,4.43
2018-11-13T05:25:00.542Z,3.83
2018-11-13T05:27:28.592Z,4.53
2018-11-13T05:29:56.613Z,4.20
2018-11-13T05:32:24.650Z,4.23
2018-11-13T05:34:52.748Z,4.80
2018-11-13T05:37:20.785Z,4.47
2018-11-13T05:39:48.932Z,4.20
2018-11-13T05:42:16.999Z,4.90
2018-11-13T05:44:45.032Z,4.53
2018-11-13T05:47:13.106Z,4.30
2018-11-13T05:49:41.142Z,4.00
2018-11-13T05:52:09.226Z,4.63
2018-11-13T05:54:37.281Z,5.10
2018-11-13T05:57:05.585Z,4.70
2018-11-13T05:59:33.742Z,4.30
2018-11-13T06:02:01.804Z,4.20
2018-11-13T06:04:29.890Z,5.63
2018-11-13T06:06:58.000Z,5.03
2018-11-13T06:09:26.035Z,4.73
2018-11-13T06:11:54.231Z,4.70
2018-11-13T06:14:22.302Z,5.30
2018-11-13T06:16:50.523Z,5.57
2018-11-13T06:19:18.578Z,5.20
2018-11-13T06:21:46.605Z,5.00
2018-11-13T06:24:14.681Z,4.20
2018-11-13T06:26:43.394Z,5.53
2018-11-13T06:29:11.540Z,5.10
2018-11-13T06:31:39.624Z,4.87
2018-11-13T06:34:07.734Z,5.33
2018-11-13T06:36:35.832Z,5.17
2018-11-13T06:39:07.271Z,5.20
2018-11-13T06:41:35.372Z,4.70
2018-11-13T06:44:03.768Z,5.07
2018-11-13T06:46:31.846Z,5.03
2018-11-13T06:48:59.981Z,5.37
2018-11-13T06:51:28.012Z,6.00
2018-11-13T06:54:07.381Z,5.17
2018-11-13T06:56:35.534Z,5.80
2018-11-13T06:59:03.748Z,6.00
2018-11-13T07:01:31.829Z,5.23
2018-11-13T07:03:59.899Z,5.40
2018-11-13T07:06:27.971Z,5.23
2018-11-13T07:08:56.057Z,5.67
2018-11-13T07:11:24.208Z,5.30
2018-11-13T07:13:52.182Z,6.67
2018-11-13T07:16:20.235Z,5.77
2018-11-13T07:18:48.353Z,7.20
2018-11-13T07:21:16.423Z,6.83
2018-11-13T07:23:44.584Z,6.97
2018-11-13T07:26:12.622Z,6.43
2018-11-13T07:28:40.921Z,7.57
2018-11-13T07:31:09.017Z,6.73
2018-11-13T07:33:37.103Z,7.50
2018-11-13T07:36:05.277Z,7.57
2018-11-13T07:38:33.376Z,7.27
2018-11-13T07:41:01.485Z,7.43
2018-11-13T07:43:29.509Z,6.67
2018-11-13T07:45:57.671Z,7.13
2018-11-13T07:48:25.807Z,7.37
2018-11-13T07:50:54.019Z,6.67
2018-11-13T07:53:22.126Z,7.60
2018-11-13T07:55:50.218Z,7.50
2018-11-13T07:58:18.256Z,6.97
2018-11-13T08:00:46.453Z,7.63
2018-11-13T08:03:24.702Z,7.53
2018-11-13T08:05:52.781Z,7.43
2018-11-13T08:08:20.875Z,6.97
2018-11-13T08:10:48.957Z,7.10
2018-11-13T08:13:17.240Z,7.00
2018-11-13T08:15:45.241Z,7.40
2018-11-13T08:18:13.515Z,6.57
2018-11-13T08:20:41.882Z,7.07
2018-11-13T08:23:09.987Z,6.60
2018-11-13T08:25:38.166Z,6.47
2018-11-13T08:28:06.240Z,6.47
2018-11-13T08:30:34.250Z,6.47
2018-11-13T08:33:02.344Z,6.13
2018-11-13T08:35:30.440Z,5.77
2018-11-13T08:37:58.462Z,6.07
2018-11-13T08:40:26.589Z,6.03
2018-11-13T08:42:54.654Z,5.33
2018-11-13T08:45:22.702Z,6.17
2018-11-13T08:47:50.865Z,5.80
2018-11-13T08:50:19.076Z,4.97
2018-11-13T08:52:47.091Z,5.47
2018-11-13T08:55:15.155Z,5.07
2018-11-13T08:57:44.133Z,5.60
2018-11-13T09:00:13.666Z,5.07
2018-11-13T09:02:41.949Z,4.10
2018-11-13T09:05:10.237Z,4.53
2018-11-13T09:07:38.186Z,4.60
2018-11-13T09:10:08.415Z,4.63
2018-11-13T09:12:36.681Z,4.63
2018-11-13T09:15:07.096Z,5.70
2018-11-13T09:17:35.168Z,3.73
2018-11-13T09:20:03.969Z,4.37
2018-11-13T09:22:32.055Z,4.67
2018-11-13T09:25:00.086Z,4.23
2018-11-13T09:27:28.158Z,4.17
2018-11-13T09:29:56.371Z,4.10
2018-11-13T09:32:24.362Z,3.73
2018-11-13T09:34:53.502Z,3.70
2018-11-13T09:37:21.570Z,4.03
2018-11-13T09:39:49.617Z,4.73
2018-11-13T09:42:17.703Z,3.67
2018-11-13T09:44:45.855Z,3.93
2018-11-13T09:47:13.895Z,4.17
2018-11-13T09:49:42.310Z,4.20
2018-11-13T09:52:10.374Z,3.50
2018-11-13T09:54:38.454Z,3.90
2018-11-13T09:57:06.606Z,3.00
2018-11-13T09:59:34.682Z,3.10
2018-11-13T10:02:03.223Z,3.50
2018-11-13T10:04:31.387Z,3.37
2018-11-13T10:06:59.048Z,3.40
2018-11-13T10:09:27.061Z,2.80
2018-11-13T10:11:55.282Z,2.57
2018-11-13T10:14:23.389Z,2.40
2018-11-13T10:16:51.435Z,2.23
2018-11-13T10:19:19.497Z,2.50
2018-11-13T10:21:47.670Z,3.07
2018-11-13T10:24:15.792Z,2.40
2018-11-13T10:26:43.930Z,2.67
2018-11-13T10:29:11.969Z,2.57
2018-11-13T10:31:40.022Z,2.13
2018-11-13T10:34:08.245Z,2.33
2018-11-13T10:36:36.314Z,2.53
2018-11-13T10:39:07.347Z,2.50
2018-11-13T10:41:35.573Z,2.80
2018-11-13T10:44:03.605Z,2.53
2018-11-13T10:46:31.630Z,2.70
2018-11-13T10:48:59.738Z,2.57
2018-11-13T10:51:27.752Z,3.40
2018-11-13T10:53:55.888Z,2.63
2018-11-13T10:56:24.127Z,2.30
2018-11-13T10:58:52.196Z,2.57
2018-11-13T11:01:20.282Z,2.17
2018-11-13T11:03:48.313Z,2.20
2018-11-13T11:06:16.392Z,1.90
2018-11-13T11:08:44.454Z,2.50
2018-11-13T11:11:12.496Z,1.80
2018-11-13T11:13:40.990Z,1.97
2018-11-13T11:16:09.083Z,2.20
2018-11-13T11:18:37.157Z,1.70
2018-11-13T11:21:05.233Z,1.40
2018-11-13T11:23:33.523Z,1.93
2018-11-13T11:26:01.578Z,1.77
2018-11-13T11:28:29.662Z,2.03
2018-11-13T11:30:57.744Z,2.07
2018-11-13T11:33:25.898Z,1.80
2018-11-13T11:35:53.954Z,2.10
2018-11-13T11:38:22.036Z,2.00
2018-11-13T11:40:50.099Z,1.80
2018-11-13T11:43:18.166Z,2.10
2018-11-13T11:45:46.263Z,2.03
2018-11-13T11:48:14.637Z,1.67
2018-11-13T11:50:42.705Z,2.33
2018-11-13T11:53:10.807Z,1.80
2018-11-13T11:55:38.872Z,2.00
2018-11-13T11:58:06.925Z,1.90
2018-11-13T12:00:35.111Z,1.93
2018-11-13T12:03:04.147Z,2.07
2018-11-13T12:05:32.473Z,2.13
2018-11-13T12:08:00.523Z,2.07
2018-11-13T12:10:28.563Z,1.97
2018-11-13T12:12:56.653Z,2.00
2018-11-13T12:15:24.736Z,2.10
2018-11-13T12:17:52.820Z,2.60
2018-11-13T12:20:20.985Z,2.23
2018-11-13T12:22:49.145Z,1.43
2018-11-13T12:25:20.066Z,1.60
2018-11-13T12:27:46.928Z,1.90
2018-11-13T12:30:15.688Z,2.17
2018-11-13T12:32:43.780Z,2.10
2018-11-13T12:35:12.033Z,1.93
2018-11-13T12:37:40.371Z,2.50
2018-11-13T12:40:09.927Z,2.10
2018-11-13T12:42:38.123Z,1.90
2018-11-13T12:45:06.875Z,1.77
2018-11-13T12:47:34.325Z,2.00
2018-11-13T12:50:02.476Z,1.90
2018-11-13T12:52:30.561Z,1.87
2018-11-13T12:54:58.818Z,1.77
2018-11-13T12:57:26.981Z,1.67
2018-11-13T12:59:55.075Z,1.50
2018-11-13T13:02:23.243Z,2.00
2018-11-13T13:04:51.295Z,1.40
2018-11-13T13:07:19.358Z,1.80
2018-11-13T13:09:47.473Z,1.67
2018-11-13T13:12:15.593Z,2.07
2018-11-13T13:14:43.704Z,2.20
2018-11-13T13:17:11.728Z,2.03
2018-11-13T13:19:39.949Z,1.67
2018-11-13T13:22:08.220Z,1.90
2018-11-13T13:24:36.232Z,1.73
2018-11-13T13:27:04.432Z,1.80
2018-11-13T13:29:32.482Z,2.00
2018-11-13T13:32:00.634Z,1.67
2018-11-13T13:34:28.834Z,1.97
2018-11-13T13:36:56.948Z,1.83
2018-11-13T13:39:25.091Z,1.70
2018-11-13T13:41:53.187Z,1.77
2018-11-13T13:44:21.238Z,1.97
2018-11-13T13:46:49.361Z,2.20
2018-11-13T13:49:17.392Z,1.97
2018-11-13T13:51:45.468Z,1.80
2018-11-13T13:54:13.547Z,1.70
2018-11-13T13:56:41.843Z,1.80
2018-11-13T13:59:09.909Z,1.60
2018-11-13T14:01:38.086Z,1.80
2018-11-13T14:04:06.190Z,2.13
2018-11-13T14:06:34.226Z,2.00
2018-11-13T14:09:02.326Z,2.03
2018-11-13T14:11:30.520Z,2.50
2018-11-13T14:13:58.797Z,2.27
2018-11-13T14:16:26.912Z,2.13
2018-11-13T14:18:54.976Z,1.70
2018-11-13T14:21:23.002Z,1.90
2018-11-13T14:23:51.083Z,2.00
2018-11-13T14:26:19.158Z,2.00
2018-11-13T14:28:47.199Z,1.80
2018-11-13T14:31:15.225Z,2.30
2018-11-13T14:33:43.355Z,2.20
2018-11-13T14:36:11.376Z,2.10
2018-11-13T14:38:39.437Z,1.90
2018-11-13T14:41:07.453Z,2.30
2018-11-13T14:43:35.626Z,2.20
2018-11-13T14:46:03.720Z,2.23
2018-11-13T14:48:31.887Z,2.07
2018-11-13T14:50:59.930Z,2.77
2018-11-13T14:53:28.123Z,1.97
2018-11-13T14:55:56.217Z,2.03
2018-11-13T14:58:24.282Z,2.07
2018-11-13T15:00:52.348Z,1.60
2018-11-13T15:03:20.396Z,2.13
2018-11-13T15:05:48.624Z,2.30
2018-11-13T15:08:16.690Z,1.67
2018-11-13T15:10:44.789Z,2.20
2018-11-13T15:13:12.973Z,2.40
2018-11-13T15:15:41.257Z,1.83
2018-11-13T15:18:09.387Z,2.23
2018-11-13T15:20:37.487Z,2.10
2018-11-13T15:23:06.668Z,2.23
2018-11-13T15:25:34.783Z,1.97
2018-11-13T15:28:03.217Z,2.47
2018-11-13T15:30:32.531Z,2.03
2018-11-13T15:33:02.213Z,2.10
2018-11-13T15:35:30.437Z,2.73
2018-11-13T15:37:58.835Z,2.40
2018-11-13T15:40:27.057Z,2.30
2018-11-13T15:42:55.235Z,2.50
2018-11-13T15:45:23.424Z,2.47
2018-11-13T15:47:51.497Z,2.67
2018-11-13T15:50:19.566Z,2.30
2018-11-13T15:52:47.689Z,2.50
2018-11-13T15:55:15.770Z,2.10
2018-11-13T15:57:43.949Z,2.20
2018-11-13T16:00:14.626Z,2.27
2018-11-13T16:02:42.670Z,2.40
2018-11-13T16:05:42.632Z,2.50
2018-11-13T16:08:10.693Z,2.20
2018-11-13T16:10:38.834Z,2.50
2018-11-13T16:13:07.059Z,2.10
2018-11-13T16:15:35.129Z,2.20
2018-11-13T16:18:03.353Z,2.40
2018-11-13T16:20:37.998Z,2.30
2018-11-13T16:23:06.268Z,2.30
2018-11-13T16:25:34.327Z,2.30
2018-11-13T16:28:02.417Z,2.77
2018-11-13T16:30:30.815Z,2.87
2018-11-13T16:32:58.833Z,2.80
2018-11-13T16:35:26.932Z,3.10
2018-11-13T16:37:55.110Z,3.13
2018-11-13T16:40:23.288Z,3.73
2018-11-13T16:42:51.386Z,3.30
2018-11-13T16:45:19.658Z,3.23
2018-11-13T16:47:47.795Z,2.63
2018-11-13T16:50:17.029Z,2.93
2018-11-13T16:52:45.270Z,2.90
2018-11-13T16:55:13.495Z,3.00
2018-11-13T16:57:41.917Z,3.47
2018-11-13T17:00:10.555Z,3.27
2018-11-13T17:02:38.676Z,3.37
2018-11-13T17:05:09.301Z,3.83
2018-11-13T17:07:37.446Z,3.50
2018-11-13T17:10:08.394Z,3.03
2018-11-13T17:12:36.586Z,3.03
2018-11-13T17:15:05.435Z,3.30
2018-11-13T17:17:33.585Z,3.30
2018-11-13T17:20:01.666Z,3.53
2018-11-13T17:22:29.749Z,4.47
2018-11-13T17:24:57.801Z,3.53
2018-11-13T17:27:25.917Z,4.10
2018-11-13T17:29:54.808Z,3.70
2018-11-13T17:32:22.980Z,3.70
2018-11-13T17:34:51.022Z,3.83
2018-11-13T17:37:19.081Z,4.07
2018-11-13T17:39:47.151Z,3.30
2018-11-13T17:42:15.309Z,3.70
2018-11-13T17:44:43.518Z,3.93
2018-11-13T17:47:11.631Z,3.63
2018-11-13T17:49:39.721Z,3.70
2018-11-13T17:52:08.893Z,4.23
2018-11-13T17:54:37.045Z,4.20
2018-11-13T17:57:05.578Z,4.00
2018-11-13T17:59:33.760Z,3.67
2018-11-13T18:02:01.906Z,4.07
2018-11-13T18:04:29.940Z,4.03
2018-11-13T18:06:58.034Z,4.40
2018-11-13T18:09:26.137Z,3.80
2018-11-13T18:11:54.329Z,4.50
2018-11-13T18:14:22.456Z,4.63
2018-11-13T18:16:50.539Z,4.47
2018-11-13T18:19:18.636Z,4.60
2018-11-13T18:21:46.882Z,4.50
2018-11-13T18:24:14.902Z,4.17
2018-11-13T18:26:43.038Z,4.10
2018-11-13T18:29:11.469Z,4.23
2018-11-13T18:31:39.595Z,4.10
2018-11-13T18:34:07.919Z,3.97
2018-11-13T18:36:36.154Z,5.07
2018-11-13T18:39:06.510Z,4.20
2018-11-13T18:41:34.792Z,3.97
2018-11-13T18:44:03.657Z,4.70
2018-11-13T18:46:31.783Z,4.40
2018-11-13T18:48:59.946Z,4.00
2018-11-13T18:51:28.036Z,4.13
2018-11-13T18:53:56.479Z,4.03
2018-11-13T18:56:24.951Z,4.93
2018-11-13T18:58:54.338Z,4.53
2018-11-13T19:01:22.831Z,4.60
2018-11-13T19:03:50.993Z,4.57
2018-11-13T19:06:19.288Z,4.97
2018-11-13T19:08:47.662Z,4.17
2018-11-13T19:11:15.789Z,4.27
2018-11-13T19:13:44.110Z,4.27
2018-11-13T19:16:12.289Z,4.60
2018-11-13T19:18:40.813Z,4.20
2018-11-13T19:21:08.845Z,5.10
2018-11-13T19:23:37.254Z,5.50
2018-11-13T19:26:05.272Z,4.53
2018-11-13T19:28:33.387Z,4.37
2018-11-13T19:31:01.599Z,5.60
2018-11-13T19:33:29.631Z,4.63
2018-11-13T19:35:57.761Z,4.83
2018-11-13T19:38:25.890Z,4.93
2018-11-13T19:40:54.028Z,5.17
2018-11-13T19:43:22.164Z,3.87
2018-11-13T19:45:50.269Z,4.23
2018-11-13T19:48:18.295Z,4.80
2018-11-13T19:50:46.380Z,4.90
2018-11-13T19:53:14.519Z,4.80
2018-11-13T19:55:42.696Z,4.93
2018-11-13T19:58:10.911Z,4.57
2018-11-13T20:00:39.013Z,4.47
2018-11-13T20:03:07.254Z,4.30
2018-11-13T20:05:35.433Z,5.33
2018-11-13T20:08:03.809Z,5.80
2018-11-13T20:10:32.058Z,4.30
2018-11-13T20:13:00.199Z,4.90
2018-11-13T20:15:28.437Z,4.80
2018-11-13T20:17:56.534Z,5.37
2018-11-13T20:20:24.857Z,5.47
2018-11-13T20:22:53.129Z,5.40
2018-11-13T20:25:21.272Z,5.47
2018-11-13T20:27:49.488Z,4.90
2018-11-13T20:30:17.618Z,5.63
2018-11-13T20:32:45.849Z,5.37
2018-11-13T20:35:14.106Z,5.00
2018-11-13T20:37:42.358Z,5.37
2018-11-13T20:40:10.957Z,5.03
2018-11-13T20:42:39.287Z,5.50
2018-11-13T20:45:07.744Z,5.43
2018-11-13T20:47:35.975Z,5.83
2018-11-13T20:50:05.490Z,5.53
2018-11-13T20:52:33.751Z,6.40
2018-11-13T20:55:02.036Z,4.90
2018-11-13T20:57:30.239Z,5.10
2018-11-13T20:59:58.432Z,4.93
2018-11-13T21:02:27.449Z,5.13
2018-11-13T21:04:55.555Z,4.90
2018-11-13T21:07:23.703Z,5.30
2018-11-13T21:09:52.276Z,5.47
2018-11-13T21:12:20.069Z,5.03
2018-11-13T21:14:48.423Z,5.57
2018-11-13T21:17:16.506Z,5.70
2018-11-13T21:19:44.656Z,5.17
2018-11-13T21:22:12.793Z,4.70
2018-11-13T21:24:40.938Z,6.17
2018-11-13T21:27:09.121Z,5.50
2018-11-13T21:29:37.168Z,4.90
2018-11-13T21:32:05.343Z,5.27
2018-11-13T21:34:33.432Z,5.50
2018-11-13T21:37:01.749Z,5.27
2018-11-13T21:39:29.745Z,5.17
2018-11-13T21:41:57.946Z,5.43
2018-11-13T21:44:26.008Z,5.00
2018-11-13T21:46:54.168Z,4.93
2018-11-13T21:49:22.390Z,5.77
2018-11-13T21:51:50.606Z,5.20
2018-11-13T21:54:18.700Z,5.00
2018-11-13T21:56:46.838Z,5.33
2018-11-13T21:59:14.932Z,5.27
2018-11-13T22:01:43.040Z,5.20
2018-11-13T22:04:11.127Z,5.30
2018-11-13T22:06:39.319Z,5.37
2018-11-13T22:09:08.450Z,5.70
2018-11-13T22:11:36.600Z,5.33
2018-11-13T22:14:04.814Z,5.30
2018-11-13T22:16:32.948Z,5.23
2018-11-13T22:19:01.040Z,5.57
2018-11-13T22:21:29.083Z,5.37
2018-11-13T22:23:57.254Z,5.90
2018-11-13T22:26:25.335Z,5.60
2018-11-13T22:28:53.845Z,5.40
2018-11-13T22:31:21.588Z,5.80
2018-11-13T22:33:49.694Z,5.43
2018-11-13T22:36:17.922Z,5.53
2018-11-13T22:38:46.033Z,6.00
2018-11-13T22:41:14.184Z,5.20
2018-11-13T22:43:42.513Z,5.93
2018-11-13T22:46:10.601Z,5.20
2018-11-13T22:48:38.715Z,5.50
2018-11-13T22:51:06.826Z,5.50
2018-11-13T22:53:34.879Z,6.10
2018-11-13T22:56:03.002Z,6.40
2018-11-13T22:58:31.055Z,5.43
2018-11-13T23:00:59.215Z,5.60
2018-11-13T23:03:27.212Z,5.67
2018-11-13T23:05:55.469Z,7.63
2018-11-13T23:08:23.551Z,5.07
2018-11-13T23:10:51.633Z,5.73
2018-11-13T23:13:19.781Z,5.77
2018-11-13T23:15:47.847Z,6.17
2018-11-13T23:18:15.913Z,5.33
2018-11-13T23:20:43.982Z,6.27
2018-11-13T23:23:12.033Z,6.17
2018-11-13T23:25:40.251Z,5.17
2018-11-13T23:28:08.361Z,5.60
2018-11-13T23:30:36.405Z,6.30
2018-11-13T23:33:04.903Z,5.63
2018-11-13T23:35:32.990Z,6.13
2018-11-13T23:38:01.580Z,6.40
2018-11-13T23:40:29.315Z,6.27
2018-11-13T23:42:57.309Z,7.23
2018-11-13T23:45:25.357Z,5.57
2018-11-13T23:47:53.500Z,7.00
2018-11-13T23:50:21.766Z,6.80
2018-11-13T23:52:49.809Z,7.20
2018-11-13T23:55:17.881Z,7.80
2018-11-13T23:57:45.926Z,7.93
